sensor_id;sensor_type;location;lat;lon;timestamp;pressure;altitude;pressure_sealevel;temperature;humidity
55456;BME280;63021;52.836;6.376;2023-07-13T00:00:33;101287.41;;;16.98;62.21
55456;BME280;63021;52.836;6.376;2023-07-13T00:02:58;101289.09;;;16.99;61.93
55456;BME280;63021;52.836;6.376;2023-07-13T00:05:24;101290.78;;;17.00;62.39
55456;BME280;63021;52.836;6.376;2023-07-13T00:07:50;101280.00;;;17.00;62.29
55456;BME280;63021;52.836;6.376;2023-07-13T00:10:16;101287.72;;;17.03;62.31
55456;BME280;63021;52.836;6.376;2023-07-13T00:12:42;101286.53;;;17.06;62.19
55456;BME280;63021;52.836;6.376;2023-07-13T00:15:17;101286.16;;;17.09;62.75
55456;BME280;63021;52.836;6.376;2023-07-13T00:17:48;101280.59;;;17.10;63.19
55456;BME280;63021;52.836;6.376;2023-07-13T00:20:14;101288.31;;;17.13;62.95
55456;BME280;63021;52.836;6.376;2023-07-13T00:22:40;101291.69;;;17.16;63.37
55456;BME280;63021;52.836;6.376;2023-07-13T00:25:05;101288.31;;;17.13;63.76
55456;BME280;63021;52.836;6.376;2023-07-13T00:27:31;101293.16;;;17.18;63.11
55456;BME280;63021;52.836;6.376;2023-07-13T00:29:57;101288.44;;;17.20;63.52
55456;BME280;63021;52.836;6.376;2023-07-13T00:32:23;101291.13;;;17.20;63.57
55456;BME280;63021;52.836;6.376;2023-07-13T00:34:51;101292.63;;;17.23;63.78
55456;BME280;63021;52.836;6.376;2023-07-13T00:37:16;101286.59;;;17.21;63.74
55456;BME280;63021;52.836;6.376;2023-07-13T00:39:42;101294.28;;;17.24;63.77
55456;BME280;63021;52.836;6.376;2023-07-13T00:42:07;101294.28;;;17.24;63.70
55456;BME280;63021;52.836;6.376;2023-07-13T00:44:33;101299.66;;;17.24;63.92
55456;BME280;63021;52.836;6.376;2023-07-13T00:46:58;101307.56;;;17.25;63.95
55456;BME280;63021;52.836;6.376;2023-07-13T00:49:25;101302.19;;;17.25;63.76
55456;BME280;63021;52.836;6.376;2023-07-13T00:52:04;101296.78;;;17.25;63.88
55456;BME280;63021;52.836;6.376;2023-07-13T00:54:43;101305.91;;;17.24;63.93
55456;BME280;63021;52.836;6.376;2023-07-13T00:57:12;101300.22;;;17.19;63.82
55456;BME280;63021;52.836;6.376;2023-07-13T00:59:41;101295.84;;;17.18;64.01
55456;BME280;63021;52.836;6.376;2023-07-13T01:02:07;101298.53;;;17.18;64.03
55456;BME280;63021;52.836;6.376;2023-07-13T01:04:33;101309.47;;;17.17;64.25
55456;BME280;63021;52.836;6.376;2023-07-13T01:06:58;101306.31;;;17.13;63.93
55456;BME280;63021;52.836;6.376;2023-07-13T01:09:26;101309.66;;;17.15;64.23
55456;BME280;63021;52.836;6.376;2023-07-13T01:11:51;101305.31;;;17.14;64.14
55456;BME280;63021;52.836;6.376;2023-07-13T01:14:17;101310.88;;;17.12;64.33
55456;BME280;63021;52.836;6.376;2023-07-13T01:16:43;101311.03;;;17.11;64.00
55456;BME280;63021;52.836;6.376;2023-07-13T01:19:37;101309.38;;;17.10;64.09
55456;BME280;63021;52.836;6.376;2023-07-13T01:22:14;101313.25;;;17.07;63.78
55456;BME280;63021;52.836;6.376;2023-07-13T01:24:43;101314.97;;;17.00;64.05
55456;BME280;63021;52.836;6.376;2023-07-13T01:27:10;101309.78;;;16.99;64.51
55456;BME280;63021;52.836;6.376;2023-07-13T01:29:37;101315.34;;;16.97;64.74
55456;BME280;63021;52.836;6.376;2023-07-13T01:32:12;101319.88;;;16.96;64.46
55456;BME280;63021;52.836;6.376;2023-07-13T01:34:38;101322.72;;;16.95;64.79
55456;BME280;63021;52.836;6.376;2023-07-13T01:37:08;101317.72;;;16.92;64.90
55456;BME280;63021;52.836;6.376;2023-07-13T01:39:34;101309.81;;;16.90;64.86
55456;BME280;63021;52.836;6.376;2023-07-13T01:41:59;101305.28;;;16.91;64.67
55456;BME280;63021;52.836;6.376;2023-07-13T01:44:25;101317.25;;;16.88;64.86
55456;BME280;63021;52.836;6.376;2023-07-13T01:46:51;101313.69;;;16.88;64.86
55456;BME280;63021;52.836;6.376;2023-07-13T01:49:16;101309.66;;;16.84;64.92
55456;BME280;63021;52.836;6.376;2023-07-13T01:51:42;101310.19;;;16.79;65.09
55456;BME280;63021;52.836;6.376;2023-07-13T01:54:07;101308.34;;;16.79;65.07
55456;BME280;63021;52.836;6.376;2023-07-13T01:56:32;101316.75;;;16.76;65.38
55456;BME280;63021;52.836;6.376;2023-07-13T01:58:58;101318.97;;;16.73;65.62
55456;BME280;63021;52.836;6.376;2023-07-13T02:01:23;101315.78;;;16.69;65.54
55456;BME280;63021;52.836;6.376;2023-07-13T02:03:49;101318.66;;;16.68;65.73
55456;BME280;63021;52.836;6.376;2023-07-13T02:06:14;101318.19;;;16.64;65.58
55456;BME280;63021;52.836;6.376;2023-07-13T02:08:41;101314.81;;;16.62;66.00
55456;BME280;63021;52.836;6.376;2023-07-13T02:11:09;101319.34;;;16.61;66.00
55456;BME280;63021;52.836;6.376;2023-07-13T02:13:35;101316.84;;;16.60;66.02
55456;BME280;63021;52.836;6.376;2023-07-13T02:16:00;101325.09;;;16.58;65.99
55456;BME280;63021;52.836;6.376;2023-07-13T02:18:26;101321.72;;;16.56;66.16
55456;BME280;63021;52.836;6.376;2023-07-13T02:20:52;101318.56;;;16.53;66.05
55456;BME280;63021;52.836;6.376;2023-07-13T02:23:17;101318.91;;;16.50;65.93
55456;BME280;63021;52.836;6.376;2023-07-13T02:25:42;101322.59;;;16.49;65.85
55456;BME280;63021;52.836;6.376;2023-07-13T02:28:08;101327.31;;;16.47;65.98
55456;BME280;63021;52.836;6.376;2023-07-13T02:30:34;101321.09;;;16.46;66.03
55456;BME280;63021;52.836;6.376;2023-07-13T02:33:00;101314.38;;;16.42;66.52
55456;BME280;63021;52.836;6.376;2023-07-13T02:35:25;101322.63;;;16.40;66.66
55456;BME280;63021;52.836;6.376;2023-07-13T02:37:51;101319.94;;;16.40;66.63
55456;BME280;63021;52.836;6.376;2023-07-13T02:40:17;101320.97;;;16.39;66.36
55456;BME280;63021;52.836;6.376;2023-07-13T02:42:42;101326.66;;;16.36;66.61
55456;BME280;63021;52.836;6.376;2023-07-13T02:45:09;101321.66;;;16.33;66.81
55456;BME280;63021;52.836;6.376;2023-07-13T02:47:35;101320.81;;;16.33;66.89
55456;BME280;63021;52.836;6.376;2023-07-13T02:50:01;101329.06;;;16.31;67.17
55456;BME280;63021;52.836;6.376;2023-07-13T02:52:27;101324.84;;;16.28;67.27
55456;BME280;63021;52.836;6.376;2023-07-13T02:54:52;101318.31;;;16.23;66.98
55456;BME280;63021;52.836;6.376;2023-07-13T02:57:18;101324.38;;;16.25;67.04
55456;BME280;63021;52.836;6.376;2023-07-13T02:59:43;101322.88;;;16.22;67.35
55456;BME280;63021;52.836;6.376;2023-07-13T03:02:09;101330.25;;;16.20;67.39
55456;BME280;63021;52.836;6.376;2023-07-13T03:04:36;101329.25;;;16.21;67.33
55456;BME280;63021;52.836;6.376;2023-07-13T03:07:02;101324.88;;;16.20;67.83
55456;BME280;63021;52.836;6.376;2023-07-13T03:09:27;101318.50;;;16.21;67.39
55456;BME280;63021;52.836;6.376;2023-07-13T03:11:54;101318.50;;;16.21;67.50
55456;BME280;63021;52.836;6.376;2023-07-13T03:14:20;101327.38;;;16.22;67.81
55456;BME280;63021;52.836;6.376;2023-07-13T03:16:45;101329.41;;;16.20;67.63
55456;BME280;63021;52.836;6.376;2023-07-13T03:19:13;101326.09;;;16.18;67.66
55456;BME280;63021;52.836;6.376;2023-07-13T03:21:39;101325.06;;;16.19;67.87
55456;BME280;63021;52.836;6.376;2023-07-13T03:24:04;101327.09;;;16.17;67.93
55456;BME280;63021;52.836;6.376;2023-07-13T03:26:30;101333.28;;;16.17;68.22
55456;BME280;63021;52.836;6.376;2023-07-13T03:28:55;101330.59;;;16.17;67.88
55456;BME280;63021;52.836;6.376;2023-07-13T03:31:22;101337.66;;;16.18;68.03
55456;BME280;63021;52.836;6.376;2023-07-13T03:33:49;101342.03;;;16.19;68.29
55456;BME280;63021;52.836;6.376;2023-07-13T03:36:17;101337.66;;;16.18;68.30
55456;BME280;63021;52.836;6.376;2023-07-13T03:38:52;101340.50;;;16.17;68.58
55456;BME280;63021;52.836;6.376;2023-07-13T03:41:18;101344.19;;;16.16;69.26
55456;BME280;63021;52.836;6.376;2023-07-13T03:43:44;101346.41;;;16.12;69.32
55456;BME280;63021;52.836;6.376;2023-07-13T03:46:09;101352.59;;;16.13;69.47
55456;BME280;63021;52.836;6.376;2023-07-13T03:48:35;101349.28;;;16.10;69.20
55456;BME280;63021;52.836;6.376;2023-07-13T03:51:01;101360.00;;;16.10;69.54
55456;BME280;63021;52.836;6.376;2023-07-13T03:53:26;101360.00;;;16.10;69.75
55456;BME280;63021;52.836;6.376;2023-07-13T03:55:52;101352.09;;;16.09;69.62
55456;BME280;63021;52.836;6.376;2023-07-13T04:00:49;101352.28;;;16.07;69.83
55456;BME280;63021;52.836;6.376;2023-07-13T04:03:15;101359.66;;;16.05;70.04
55456;BME280;63021;52.836;6.376;2023-07-13T04:05:41;101354.66;;;16.02;70.07
55456;BME280;63021;52.836;6.376;2023-07-13T04:08:07;101366.22;;;16.03;69.88
55456;BME280;63021;52.836;6.376;2023-07-13T04:10:32;101364.53;;;16.02;70.03
55456;BME280;63021;52.836;6.376;2023-07-13T04:12:58;101375.13;;;16.03;70.36
55456;BME280;63021;52.836;6.376;2023-07-13T04:15:23;101380.16;;;16.06;70.32
55456;BME280;63021;52.836;6.376;2023-07-13T04:17:49;101377.47;;;16.06;70.75
55456;BME280;63021;52.836;6.376;2023-07-13T04:20:14;101379.13;;;16.07;70.38
55456;BME280;63021;52.836;6.376;2023-07-13T04:22:39;101377.28;;;16.08;70.96
55456;BME280;63021;52.836;6.376;2023-07-13T04:25:05;101379.81;;;16.09;70.73
55456;BME280;63021;52.836;6.376;2023-07-13T04:27:31;101379.81;;;16.09;71.23
55456;BME280;63021;52.836;6.376;2023-07-13T04:29:56;101385.00;;;16.11;71.12
55456;BME280;63021;52.836;6.376;2023-07-13T04:32:21;101388.53;;;16.11;71.15
55456;BME280;63021;52.836;6.376;2023-07-13T04:34:47;101390.03;;;16.14;71.02
55456;BME280;63021;52.836;6.376;2023-07-13T04:37:14;101390.03;;;16.14;71.10
55456;BME280;63021;52.836;6.376;2023-07-13T04:39:39;101393.56;;;16.15;71.26
55456;BME280;63021;52.836;6.376;2023-07-13T04:42:05;101398.78;;;16.16;71.16
55456;BME280;63021;52.836;6.376;2023-07-13T04:44:30;101399.44;;;16.18;71.25
55456;BME280;63021;52.836;6.376;2023-07-13T04:46:56;101395.91;;;16.18;71.14
55456;BME280;63021;52.836;6.376;2023-07-13T04:49:21;101400.09;;;16.20;71.00
55456;BME280;63021;52.836;6.376;2023-07-13T04:51:46;101390.03;;;16.22;70.70
55456;BME280;63021;52.836;6.376;2023-07-13T04:54:12;101391.84;;;16.22;70.63
55456;BME280;63021;52.836;6.376;2023-07-13T04:56:37;101400.59;;;16.24;70.62
55456;BME280;63021;52.836;6.376;2023-07-13T04:59:03;101399.78;;;16.23;70.85
55456;BME280;63021;52.836;6.376;2023-07-13T05:01:28;101397.56;;;16.27;71.21
55456;BME280;63021;52.836;6.376;2023-07-13T05:03:54;101406.28;;;16.29;71.38
55456;BME280;63021;52.836;6.376;2023-07-13T05:06:22;101406.97;;;16.31;71.19
55456;BME280;63021;52.836;6.376;2023-07-13T05:08:48;101413.69;;;16.35;71.15
55456;BME280;63021;52.836;6.376;2023-07-13T05:11:13;101408.97;;;16.37;71.18
55456;BME280;63021;52.836;6.376;2023-07-13T05:13:38;101409.66;;;16.39;70.61
55456;BME280;63021;52.836;6.376;2023-07-13T05:16:05;101418.00;;;16.44;71.58
55456;BME280;63021;52.836;6.376;2023-07-13T05:18:32;101419.53;;;16.47;71.03
55456;BME280;63021;52.836;6.376;2023-07-13T05:21:03;101412.81;;;16.51;70.78
55456;BME280;63021;52.836;6.376;2023-07-13T05:23:30;101419.50;;;16.55;70.98
55456;BME280;63021;52.836;6.376;2023-07-13T05:25:56;101423.53;;;16.59;70.90
55456;BME280;63021;52.836;6.376;2023-07-13T05:28:21;101424.84;;;16.63;70.45
55456;BME280;63021;52.836;6.376;2023-07-13T05:30:48;101427.03;;;16.68;70.62
55456;BME280;63021;52.836;6.376;2023-07-13T05:33:14;101434.75;;;16.71;70.60
55456;BME280;63021;52.836;6.376;2023-07-13T05:35:39;101433.41;;;16.75;70.41
55456;BME280;63021;52.836;6.376;2023-07-13T05:38:05;101433.88;;;16.79;70.32
55456;BME280;63021;52.836;6.376;2023-07-13T05:40:31;101435.88;;;16.85;70.65
55456;BME280;63021;52.836;6.376;2023-07-13T05:42:56;101443.47;;;16.90;69.57
55456;BME280;63021;52.836;6.376;2023-07-13T05:45:21;101447.47;;;16.94;69.99
55456;BME280;63021;52.836;6.376;2023-07-13T05:47:47;101439.06;;;16.97;70.42
55456;BME280;63021;52.836;6.376;2023-07-13T05:50:12;101444.91;;;17.01;70.18
55456;BME280;63021;52.836;6.376;2023-07-13T05:52:37;101438.84;;;17.07;69.99
55456;BME280;63021;52.836;6.376;2023-07-13T05:55:03;101444.53;;;17.12;70.17
55456;BME280;63021;52.836;6.376;2023-07-13T05:57:30;101439.66;;;17.16;70.11
55456;BME280;63021;52.836;6.376;2023-07-13T05:59:55;101445.31;;;17.21;69.85
55456;BME280;63021;52.836;6.376;2023-07-13T06:02:21;101442.28;;;17.24;70.06
55456;BME280;63021;52.836;6.376;2023-07-13T06:04:46;101457.72;;;17.30;70.36
55456;BME280;63021;52.836;6.376;2023-07-13T06:07:11;101453.50;;;17.36;69.90
55456;BME280;63021;52.836;6.376;2023-07-13T06:09:37;101453.78;;;17.41;69.94
55456;BME280;63021;52.836;6.376;2023-07-13T06:12:04;101454.09;;;17.46;69.83
55456;BME280;63021;52.836;6.376;2023-07-13T06:14:29;101449.88;;;17.52;70.11
55456;BME280;63021;52.836;6.376;2023-07-13T06:16:55;101448.31;;;17.57;69.81
55456;BME280;63021;52.836;6.376;2023-07-13T06:19:20;101451.47;;;17.61;69.79
55456;BME280;63021;52.836;6.376;2023-07-13T06:21:46;101454.47;;;17.66;69.96
55456;BME280;63021;52.836;6.376;2023-07-13T06:24:11;101461.84;;;17.72;70.11
55456;BME280;63021;52.836;6.376;2023-07-13T06:26:37;101453.72;;;17.80;70.44
55456;BME280;63021;52.836;6.376;2023-07-13T06:29:02;101451.97;;;17.88;69.47
55456;BME280;63021;52.836;6.376;2023-07-13T06:31:28;101457.50;;;17.94;69.50
55456;BME280;63021;52.836;6.376;2023-07-13T06:33:53;101459.28;;;18.02;69.84
55456;BME280;63021;52.836;6.376;2023-07-13T06:36:19;101459.03;;;18.12;69.59
55456;BME280;63021;52.836;6.376;2023-07-13T06:38:44;101460.81;;;18.20;69.47
55456;BME280;63021;52.836;6.376;2023-07-13T06:41:10;101468.84;;;18.28;69.01
55456;BME280;63021;52.836;6.376;2023-07-13T06:43:35;101461.88;;;18.33;69.21
55456;BME280;63021;52.836;6.376;2023-07-13T06:46:01;101465.88;;;18.38;69.02
55456;BME280;63021;52.836;6.376;2023-07-13T06:48:27;101467.34;;;18.40;69.35
55456;BME280;63021;52.836;6.376;2023-07-13T06:50:53;101474.72;;;18.46;68.62
55456;BME280;63021;52.836;6.376;2023-07-13T06:53:19;101474.16;;;18.51;69.16
55456;BME280;63021;52.836;6.376;2023-07-13T06:55:45;101474.63;;;18.55;68.76
55456;BME280;63021;52.836;6.376;2023-07-13T06:58:11;101475.94;;;18.59;68.25
55456;BME280;63021;52.836;6.376;2023-07-13T07:00:37;101475.41;;;18.63;68.12
55456;BME280;63021;52.836;6.376;2023-07-13T07:03:02;101476.88;;;18.66;68.55
55456;BME280;63021;52.836;6.376;2023-07-13T07:05:28;101477.16;;;18.71;68.01
55456;BME280;63021;52.836;6.376;2023-07-13T07:07:54;101473.25;;;18.74;68.59
55456;BME280;63021;52.836;6.376;2023-07-13T07:10:20;101472.22;;;18.75;68.11
55456;BME280;63021;52.836;6.376;2023-07-13T07:12:46;101481.81;;;18.77;68.40
55456;BME280;63021;52.836;6.376;2023-07-13T07:15:12;101478.53;;;18.82;67.53
55456;BME280;63021;52.836;6.376;2023-07-13T07:17:37;101483.44;;;18.86;67.78
55456;BME280;63021;52.836;6.376;2023-07-13T07:20:03;101476.47;;;18.92;67.58
55456;BME280;63021;52.836;6.376;2023-07-13T07:22:30;101478.41;;;18.98;67.82
55456;BME280;63021;52.836;6.376;2023-07-13T07:24:56;101484.25;;;19.02;67.10
55456;BME280;63021;52.836;6.376;2023-07-13T07:27:22;101481.19;;;19.05;67.67
55456;BME280;63021;52.836;6.376;2023-07-13T07:29:48;101486.22;;;19.08;67.47
55456;BME280;63021;52.836;6.376;2023-07-13T07:32:13;101484.81;;;19.12;67.44
55456;BME280;63021;52.836;6.376;2023-07-13T07:34:39;101487.13;;;19.15;67.39
55456;BME280;63021;52.836;6.376;2023-07-13T07:37:05;101493.84;;;19.19;67.27
55456;BME280;63021;52.836;6.376;2023-07-13T07:39:30;101487.19;;;19.22;67.08
55456;BME280;63021;52.836;6.376;2023-07-13T07:41:57;101496.78;;;19.25;66.63
55456;BME280;63021;52.836;6.376;2023-07-13T07:44:22;101493.91;;;19.26;66.79
55456;BME280;63021;52.836;6.376;2023-07-13T07:46:48;101492.69;;;19.29;66.99
55456;BME280;63021;52.836;6.376;2023-07-13T07:49:13;101494.38;;;19.30;66.41
55456;BME280;63021;52.836;6.376;2023-07-13T07:51:39;101491.66;;;19.30;66.49
55456;BME280;63021;52.836;6.376;2023-07-13T07:54:05;101496.31;;;19.36;67.27
55456;BME280;63021;52.836;6.376;2023-07-13T07:56:31;101498.00;;;19.37;67.29
55456;BME280;63021;52.836;6.376;2023-07-13T07:58:57;101491.81;;;19.43;67.57
55456;BME280;63021;52.836;6.376;2023-07-13T08:01:23;101505.97;;;19.45;66.91
55456;BME280;63021;52.836;6.376;2023-07-13T08:03:48;101512.84;;;19.48;66.36
55456;BME280;63021;52.836;6.376;2023-07-13T08:06:14;101520.50;;;19.44;66.07
55456;BME280;63021;52.836;6.376;2023-07-13T08:08:40;101523.97;;;19.38;66.77
55456;BME280;63021;52.836;6.376;2023-07-13T08:11:07;101524.50;;;19.33;66.68
55456;BME280;63021;52.836;6.376;2023-07-13T08:13:33;101541.28;;;19.29;67.15
55456;BME280;63021;52.836;6.376;2023-07-13T08:15:59;101547.81;;;19.19;66.88
55456;BME280;63021;52.836;6.376;2023-07-13T08:18:24;101549.22;;;19.15;67.13
55456;BME280;63021;52.836;6.376;2023-07-13T08:20:50;101543.59;;;19.02;67.57
55456;BME280;63021;52.836;6.376;2023-07-13T08:23:16;101543.03;;;18.92;67.97
55456;BME280;63021;52.836;6.376;2023-07-13T08:25:42;101533.91;;;18.78;67.43
55456;BME280;63021;52.836;6.376;2023-07-13T08:28:07;101526.06;;;18.68;67.34
55456;BME280;63021;52.836;6.376;2023-07-13T08:30:33;101522.25;;;18.62;67.95
55456;BME280;63021;52.836;6.376;2023-07-13T08:32:59;101534.44;;;18.58;67.72
55456;BME280;63021;52.836;6.376;2023-07-13T08:35:24;101536.00;;;18.52;68.30
55456;BME280;63021;52.836;6.376;2023-07-13T08:37:51;101531.97;;;18.48;68.69
55456;BME280;63021;52.836;6.376;2023-07-13T08:40:17;101535.03;;;18.45;68.87
55456;BME280;63021;52.836;6.376;2023-07-13T08:42:58;101536.06;;;18.44;69.09
55456;BME280;63021;52.836;6.376;2023-07-13T08:48:04;101530.91;;;18.34;68.98
55456;BME280;63021;52.836;6.376;2023-07-13T08:50:34;101532.50;;;18.29;68.99
55456;BME280;63021;52.836;6.376;2023-07-13T08:53:02;101533.88;;;18.25;69.52
55456;BME280;63021;52.836;6.376;2023-07-13T08:55:31;101545.19;;;18.20;70.21
55456;BME280;63021;52.836;6.376;2023-07-13T08:58:09;101550.09;;;18.16;69.72
55456;BME280;63021;52.836;6.376;2023-07-13T09:01:31;101550.28;;;18.15;70.24
55456;BME280;63021;52.836;6.376;2023-07-13T09:06:34;101556.56;;;18.07;70.20
55456;BME280;63021;52.836;6.376;2023-07-13T09:09:10;101552.06;;;17.99;70.28
55456;BME280;63021;52.836;6.376;2023-07-13T09:11:46;101570.31;;;17.89;69.26
55456;BME280;63021;52.836;6.376;2023-07-13T09:14:40;101571.22;;;17.73;68.67
55456;BME280;63021;52.836;6.376;2023-07-13T09:17:14;101574.00;;;17.57;68.63
55456;BME280;63021;52.836;6.376;2023-07-13T09:19:40;101578.28;;;17.43;68.42
55456;BME280;63021;52.836;6.376;2023-07-13T09:22:15;101577.31;;;17.27;68.55
55456;BME280;63021;52.836;6.376;2023-07-13T09:24:54;101571.47;;;17.16;68.44
55456;BME280;63021;52.836;6.376;2023-07-13T09:27:25;101570.97;;;17.04;69.17
55456;BME280;63021;52.836;6.376;2023-07-13T09:32:45;101569.81;;;16.98;69.16
55456;BME280;63021;52.836;6.376;2023-07-13T09:35:16;101566.47;;;16.96;69.59
55456;BME280;63021;52.836;6.376;2023-07-13T09:37:44;101557.88;;;17.01;70.09
55456;BME280;63021;52.836;6.376;2023-07-13T09:40:24;101567.09;;;17.06;69.52
55456;BME280;63021;52.836;6.376;2023-07-13T09:42:53;101562.72;;;17.13;69.96
55456;BME280;63021;52.836;6.376;2023-07-13T09:45:31;101561.88;;;17.21;70.23
55456;BME280;63021;52.836;6.376;2023-07-13T09:48:07;101560.34;;;17.27;69.81
55456;BME280;63021;52.836;6.376;2023-07-13T09:50:37;101562.31;;;17.33;69.63
55456;BME280;63021;52.836;6.376;2023-07-13T09:53:03;101559.09;;;17.38;69.55
55456;BME280;63021;52.836;6.376;2023-07-13T09:55:35;101558.22;;;17.45;69.78
55456;BME280;63021;52.836;6.376;2023-07-13T09:58:16;101557.38;;;17.53;70.38
55456;BME280;63021;52.836;6.376;2023-07-13T10:00:44;101563.72;;;17.60;69.93
55456;BME280;63021;52.836;6.376;2023-07-13T10:03:37;101562.28;;;17.73;70.56
55456;BME280;63021;52.836;6.376;2023-07-13T10:06:32;101559.22;;;17.84;70.05
55456;BME280;63021;52.836;6.376;2023-07-13T10:08:58;101559.00;;;17.94;70.13
55456;BME280;63021;52.836;6.376;2023-07-13T10:11:28;101561.94;;;18.07;70.12
55456;BME280;63021;52.836;6.376;2023-07-13T10:14:00;101560.72;;;18.18;69.96
55456;BME280;63021;52.836;6.376;2023-07-13T10:16:32;101555.91;;;18.28;70.00
55456;BME280;63021;52.836;6.376;2023-07-13T10:19:02;101563.56;;;18.40;70.10
55456;BME280;63021;52.836;6.376;2023-07-13T10:21:34;101559.25;;;18.53;69.46
55456;BME280;63021;52.836;6.376;2023-07-13T10:24:10;101555.44;;;18.63;69.93
55456;BME280;63021;52.836;6.376;2023-07-13T10:26:45;101564.59;;;18.77;70.00
55456;BME280;63021;52.836;6.376;2023-07-13T10:29:14;101564.00;;;18.90;69.42
55456;BME280;63021;52.836;6.376;2023-07-13T10:31:41;101558.59;;;19.04;69.86
55456;BME280;63021;52.836;6.376;2023-07-13T10:34:11;101564.00;;;19.19;69.70
55456;BME280;63021;52.836;6.376;2023-07-13T10:36:43;101556.91;;;19.33;68.69
55456;BME280;63021;52.836;6.376;2023-07-13T10:39:20;101557.09;;;19.47;68.29
55456;BME280;63021;52.836;6.376;2023-07-13T10:41:52;101555.94;;;19.56;68.60
55456;BME280;63021;52.836;6.376;2023-07-13T10:44:22;101556.47;;;19.66;67.81
55456;BME280;63021;52.836;6.376;2023-07-13T10:46:53;101555.06;;;19.70;67.72
55456;BME280;63021;52.836;6.376;2023-07-13T10:49:20;101557.19;;;19.75;66.64
55456;BME280;63021;52.836;6.376;2023-07-13T10:51:47;101557.59;;;19.72;65.87
55456;BME280;63021;52.836;6.376;2023-07-13T10:54:17;101572.78;;;19.73;65.15
55456;BME280;63021;52.836;6.376;2023-07-13T10:56:43;101584.34;;;19.67;65.31
55456;BME280;63021;52.836;6.376;2023-07-13T10:59:24;101592.66;;;19.65;64.90
55456;BME280;63021;52.836;6.376;2023-07-13T11:02:09;101596.06;;;19.59;64.71
55456;BME280;63021;52.836;6.376;2023-07-13T11:04:46;101595.16;;;19.52;65.15
55456;BME280;63021;52.836;6.376;2023-07-13T11:07:24;101590.50;;;19.46;65.35
55456;BME280;63021;52.836;6.376;2023-07-13T11:09:56;101598.31;;;19.41;65.76
55456;BME280;63021;52.836;6.376;2023-07-13T11:17:48;101591.28;;;19.39;64.74
55456;BME280;63021;52.836;6.376;2023-07-13T11:23:07;101604.97;;;19.38;63.64
55456;BME280;63021;52.836;6.376;2023-07-13T11:25:34;101597.03;;;19.36;63.74
55456;BME280;63021;52.836;6.376;2023-07-13T11:30:40;101604.13;;;19.52;64.55
55456;BME280;63021;52.836;6.376;2023-07-13T11:36:17;101602.97;;;19.62;65.28
55456;BME280;63021;52.836;6.376;2023-07-13T11:41:35;101599.88;;;19.65;66.05
55456;BME280;63021;52.836;6.376;2023-07-13T11:46:37;101599.31;;;19.69;65.63
55456;BME280;63021;52.836;6.376;2023-07-13T11:49:05;101598.78;;;19.74;65.88
55456;BME280;63021;52.836;6.376;2023-07-13T11:51:33;101594.50;;;19.80;65.64
55456;BME280;63021;52.836;6.376;2023-07-13T11:54:05;101598.13;;;19.87;65.85
55456;BME280;63021;52.836;6.376;2023-07-13T11:56:31;101600.81;;;19.87;64.44
55456;BME280;63021;52.836;6.376;2023-07-13T11:59:04;101605.38;;;19.86;60.89
55456;BME280;63021;52.836;6.376;2023-07-13T12:01:32;101606.78;;;19.82;59.73
55456;BME280;63021;52.836;6.376;2023-07-13T12:04:00;101604.94;;;19.83;58.99
55456;BME280;63021;52.836;6.376;2023-07-13T12:06:34;101599.88;;;19.95;58.27
55456;BME280;63021;52.836;6.376;2023-07-13T12:09:11;101602.31;;;20.11;58.50
55456;BME280;63021;52.836;6.376;2023-07-13T12:11:51;101599.38;;;20.28;56.87
55456;BME280;63021;52.836;6.376;2023-07-13T12:14:17;101591.56;;;20.39;56.36
55456;BME280;63021;52.836;6.376;2023-07-13T12:16:43;101586.28;;;20.53;55.36
55456;BME280;63021;52.836;6.376;2023-07-13T12:19:30;101595.25;;;20.75;54.20
55456;BME280;63021;52.836;6.376;2023-07-13T12:21:59;101596.00;;;20.90;53.86
55456;BME280;63021;52.836;6.376;2023-07-13T12:24:25;101590.66;;;21.04;52.83
55456;BME280;63021;52.836;6.376;2023-07-13T12:27:00;101590.09;;;21.15;50.63
55456;BME280;63021;52.836;6.376;2023-07-13T12:29:32;101607.84;;;21.24;49.72
55456;BME280;63021;52.836;6.376;2023-07-13T12:31:58;101603.75;;;21.35;48.43
55456;BME280;63021;52.836;6.376;2023-07-13T12:34:25;101606.31;;;21.43;48.16
55456;BME280;63021;52.836;6.376;2023-07-13T12:36:54;101601.94;;;21.49;48.10
55456;BME280;63021;52.836;6.376;2023-07-13T12:39:39;101601.19;;;21.55;48.15
55456;BME280;63021;52.836;6.376;2023-07-13T12:42:28;101616.88;;;21.67;47.73
55456;BME280;63021;52.836;6.376;2023-07-13T12:45:17;101610.44;;;21.74;47.23
55456;BME280;63021;52.836;6.376;2023-07-13T12:47:46;101611.28;;;21.82;46.37
55456;BME280;63021;52.836;6.376;2023-07-13T12:50:19;101610.25;;;21.89;45.56
55456;BME280;63021;52.836;6.376;2023-07-13T12:52:50;101608.03;;;22.00;46.42
55456;BME280;63021;52.836;6.376;2023-07-13T12:55:20;101617.41;;;22.10;45.44
55456;BME280;63021;52.836;6.376;2023-07-13T12:57:54;101604.94;;;22.23;45.70
55456;BME280;63021;52.836;6.376;2023-07-13T13:00:29;101608.75;;;22.42;45.80
55456;BME280;63021;52.836;6.376;2023-07-13T13:03:02;101607.50;;;22.58;45.51
55456;BME280;63021;52.836;6.376;2023-07-13T13:05:30;101618.75;;;22.68;45.56
55456;BME280;63021;52.836;6.376;2023-07-13T13:07:55;101608.53;;;22.77;44.73
55456;BME280;63021;52.836;6.376;2023-07-13T13:10:21;101613.53;;;22.80;43.68
55456;BME280;63021;52.836;6.376;2023-07-13T13:12:47;101612.28;;;22.82;43.44
55456;BME280;63021;52.836;6.376;2023-07-13T13:15:13;101617.28;;;22.86;43.71
55456;BME280;63021;52.836;6.376;2023-07-13T13:17:39;101621.66;;;22.80;42.70
55456;BME280;63021;52.836;6.376;2023-07-13T13:20:16;101621.69;;;22.73;42.42
55456;BME280;63021;52.836;6.376;2023-07-13T13:22:42;101627.75;;;22.69;42.28
55456;BME280;63021;52.836;6.376;2023-07-13T13:25:14;101629.63;;;22.68;41.63